Time;durP1;ratioP1;P1;durP2;ratioP2;P2;SDS_P1;SDS_P2;PMS_P1;PMS_P2;Temp;Humidity;BMP_temperature;BMP_pressure;BME280_temperature;BME280_humidity;BME280_pressure;Samples;Min_cycle;Max_cycle;Signal;HPM_P1;HPM_P2
2022/05/24 00:02:42;;;;;;;5.97;4.43;;;;;;;;;;8332196;28;20504;-89
2022/05/24 00:06:45;;;;;;;9.02;5.20;;;;;;;;;;8331879;28;20049;-89
2022/05/24 00:10:48;;;;;;;7.20;4.60;;;;;;;;;;8331840;28;20477;-89
2022/05/24 00:19:19;;;;;;;6.82;4.63;;;;;;;;;;8331587;28;20041;-88
2022/05/24 00:23:23;;;;;;;7.28;4.88;;;;;;;;;;8331512;28;20436;-89
2022/05/24 00:27:26;;;;;;;8.43;4.75;;;;;;;;;;8331406;28;20052;-89
2022/05/24 00:31:30;;;;;;;8.90;4.80;;;;;;;;;;8331308;28;20061;-89
2022/05/24 00:35:33;;;;;;;7.13;4.40;;;;;;;;;;8331207;28;20053;-88
2022/05/24 00:39:35;;;;;;;9.40;5.15;;;;;;;;;;8331013;28;20047;-89
2022/05/24 00:43:44;;;;;;;7.95;4.70;;;;;;;;;;8330877;28;20045;-88
2022/05/24 00:47:53;;;;;;;6.97;4.88;;;;;;;;;;8330889;28;20471;-91
2022/05/24 00:52:00;;;;;;;8.68;4.78;;;;;;;;;;8330579;28;20073;-89
2022/05/24 00:56:07;;;;;;;7.47;4.55;;;;;;;;;;8330839;28;20041;-89
2022/05/24 01:00:13;;;;;;;7.75;4.90;;;;;;;;;;8330684;28;20067;-89
2022/05/24 01:04:19;;;;;;;9.90;4.68;;;;;;;;;;8331154;28;20045;-89
2022/05/24 01:08:22;;;;;;;7.55;4.63;;;;;;;;;;8330543;28;20097;-89
2022/05/24 01:12:32;;;;;;;7.30;4.95;;;;;;;;;;8330378;28;20048;-89
2022/05/24 01:16:35;;;;;;;9.15;5.60;;;;;;;;;;8330256;28;20052;-89
2022/05/24 01:20:40;;;;;;;9.45;5.30;;;;;;;;;;8330290;28;20107;-89
2022/05/24 01:24:49;;;;;;;7.18;5.00;;;;;;;;;;8331875;28;20391;-89
2022/05/24 01:28:56;;;;;;;8.48;5.38;;;;;;;;;;8337070;28;20116;-89
2022/05/24 01:37:19;;;;;;;7.68;5.00;;;;;;;;;;8331719;28;20049;-90
2022/05/24 01:41:25;;;;;;;7.45;4.93;;;;;;;;;;8336593;28;20581;-89
2022/05/24 01:45:32;;;;;;;7.10;4.70;;;;;;;;;;8336449;28;20052;-88
2022/05/24 01:49:38;;;;;;;6.70;4.72;;;;;;;;;;8336516;28;20045;-89
2022/05/24 01:53:45;;;;;;;8.48;5.53;;;;;;;;;;8336041;28;20057;-89
2022/05/24 01:57:52;;;;;;;7.40;4.97;;;;;;;;;;8336104;28;20045;-89
2022/05/24 02:01:58;;;;;;;6.47;4.82;;;;;;;;;;8334789;28;20528;-88
2022/05/24 02:06:01;;;;;;;8.75;5.35;;;;;;;;;;8332183;28;20452;-89
2022/05/24 02:10:04;;;;;;;6.75;5.15;;;;;;;;;;8325525;28;20057;-88
2022/05/24 02:14:12;;;;;;;8.88;5.53;;;;;;;;;;8335611;28;20046;-89
2022/05/24 02:18:20;;;;;;;8.38;5.18;;;;;;;;;;8329805;28;20133;-87
2022/05/24 02:22:25;;;;;;;8.25;5.63;;;;;;;;;;8335272;28;20053;-89
2022/05/24 02:26:28;;;;;;;12.57;5.93;;;;;;;;;;8335268;28;20052;-90
2022/05/24 02:30:32;;;;;;;8.75;5.57;;;;;;;;;;8335000;28;20049;-88
2022/05/24 02:34:37;;;;;;;10.57;6.03;;;;;;;;;;8334464;28;20121;-88
2022/05/24 02:38:40;;;;;;;13.07;7.85;;;;;;;;;;8327004;28;20059;-88
2022/05/24 02:42:43;;;;;;;85.68;37.67;;;;;;;;;;8333420;28;20045;-89
2022/05/24 02:46:47;;;;;;;21.73;11.27;;;;;;;;;;8334349;28;20091;-90
2022/05/24 02:50:51;;;;;;;8.05;5.30;;;;;;;;;;8334104;28;20474;-88
2022/05/24 02:54:56;;;;;;;9.32;6.00;;;;;;;;;;8334358;28;20049;-89
2022/05/24 02:58:59;;;;;;;7.45;5.43;;;;;;;;;;8334094;28;20047;-89
2022/05/24 03:03:05;;;;;;;8.32;5.90;;;;;;;;;;8334048;28;20099;-89
2022/05/24 03:14:14;;;;;;;10.27;6.37;;;;;;;;;;8333612;28;20139;-89
2022/05/24 03:15:52;;;;;;;10.95;5.95;;;;;;;;;;8333591;28;20115;-89
2022/05/24 03:19:55;;;;;;;8.30;5.45;;;;;;;;;;8333344;28;20120;-88
2022/05/24 03:23:59;;;;;;;7.55;5.63;;;;;;;;;;8333211;28;20124;-90
2022/05/24 03:28:04;;;;;;;8.23;5.55;;;;;;;;;;8333353;28;20535;-88
2022/05/24 03:32:10;;;;;;;10.05;5.95;;;;;;;;;;8333059;28;20485;-87
2022/05/24 03:36:15;;;;;;;10.68;7.78;;;;;;;;;;8332885;28;20045;-90
2022/05/24 03:40:19;;;;;;;8.32;5.70;;;;;;;;;;8332767;28;20099;-88
2022/05/24 03:44:22;;;;;;;9.57;4.88;;;;;;;;;;8332641;28;20128;-90
2022/05/24 03:48:25;;;;;;;9.50;5.88;;;;;;;;;;8331735;28;20124;-88
2022/05/24 03:52:27;;;;;;;7.57;4.63;;;;;;;;;;8332087;28;20448;-89
2022/05/24 03:56:31;;;;;;;6.30;4.75;;;;;;;;;;8332440;28;20128;-88
2022/05/24 04:00:37;;;;;;;7.30;4.55;;;;;;;;;;8325958;28;20042;-89
2022/05/24 04:04:39;;;;;;;7.00;4.50;;;;;;;;;;8325653;28;20133;-87
2022/05/24 04:08:42;;;;;;;5.85;3.70;;;;;;;;;;8331997;28;20501;-91
2022/05/24 04:12:47;;;;;;;5.43;4.15;;;;;;;;;;8331740;28;20045;-90
2022/05/24 04:16:49;;;;;;;8.38;4.50;;;;;;;;;;8331544;28;20049;-89
2022/05/24 04:20:52;;;;;;;5.82;4.18;;;;;;;;;;8332035;28;20481;-87
2022/05/24 04:24:55;;;;;;;6.70;4.10;;;;;;;;;;8331443;28;20499;-89
2022/05/24 04:28:59;;;;;;;14.00;5.80;;;;;;;;;;8331311;28;20124;-88
2022/05/24 04:33:02;;;;;;;9.68;6.57;;;;;;;;;;8331350;28;20111;-90
2022/05/24 04:37:07;;;;;;;4.63;3.60;;;;;;;;;;8330973;28;20053;-88
2022/05/24 04:45:31;;;;;;;4.65;3.00;;;;;;;;;;8330798;28;20041;-88
2022/05/24 04:49:35;;;;;;;5.10;3.40;;;;;;;;;;8330635;28;20473;-87
2022/05/24 04:53:37;;;;;;;6.97;4.85;;;;;;;;;;8330477;28;20111;-89
2022/05/24 04:57:40;;;;;;;5.82;3.50;;;;;;;;;;8330376;28;20132;-87
2022/05/24 05:01:44;;;;;;;5.07;3.08;;;;;;;;;;8330458;28;20048;-86
2022/05/24 05:05:49;;;;;;;5.68;3.10;;;;;;;;;;8330311;28;20050;-87
2022/05/24 05:09:52;;;;;;;5.75;3.00;;;;;;;;;;8330403;28;20045;-87
2022/05/24 05:13:55;;;;;;;4.93;3.72;;;;;;;;;;8330383;28;20473;-88
2022/05/24 05:18:06;;;;;;;4.00;2.83;;;;;;;;;;8330316;28;20095;-87
2022/05/24 05:22:09;;;;;;;4.78;2.97;;;;;;;;;;8330163;28;20049;-89
2022/05/24 05:26:14;;;;;;;3.72;2.80;;;;;;;;;;8330307;28;20075;-87
2022/05/24 05:34:39;;;;;;;5.68;4.63;;;;;;;;;;8330069;28;20128;-85
2022/05/24 05:38:45;;;;;;;7.18;4.78;;;;;;;;;;8329918;28;20496;-86
2022/05/24 05:42:48;;;;;;;5.10;3.15;;;;;;;;;;8330376;28;20486;-85
2022/05/24 05:46:51;;;;;;;6.63;2.95;;;;;;;;;;8329757;28;20045;-86
2022/05/24 05:50:56;;;;;;;5.85;3.10;;;;;;;;;;8329589;28;20103;-85
2022/05/24 05:54:59;;;;;;;6.65;2.80;;;;;;;;;;8329864;28;20046;-86
2022/05/24 05:59:02;;;;;;;12.88;7.53;;;;;;;;;;8329672;28;20045;-90
2022/05/24 06:03:06;;;;;;;8.15;5.10;;;;;;;;;;8329539;28;20064;-85
2022/05/24 06:07:10;;;;;;;3.65;2.80;;;;;;;;;;8330610;28;20418;-85
2022/05/24 06:11:14;;;;;;;3.65;2.55;;;;;;;;;;8332322;28;20167;-85
2022/05/24 06:15:17;;;;;;;5.32;2.42;;;;;;;;;;8335544;28;20056;-87
2022/05/24 06:19:20;;;;;;;8.73;5.85;;;;;;;;;;8335397;28;20053;-92
2022/05/24 06:23:25;;;;;;;6.00;2.90;;;;;;;;;;8335552;28;20125;-89
2022/05/24 06:27:29;;;;;;;11.68;3.65;;;;;;;;;;8335361;28;20052;-85
2022/05/24 06:31:31;;;;;;;4.10;1.95;;;;;;;;;;8334949;28;20068;-87
2022/05/24 06:35:36;;;;;;;4.95;2.78;;;;;;;;;;8335012;28;20053;-85
2022/05/24 06:39:40;;;;;;;5.32;2.90;;;;;;;;;;8328501;28;20052;-87
2022/05/24 06:43:43;;;;;;;7.07;3.58;;;;;;;;;;8328254;28;20049;-86
2022/05/24 06:47:46;;;;;;;14.90;4.70;;;;;;;;;;8334561;28;20041;-84
2022/05/24 06:51:49;;;;;;;10.93;3.15;;;;;;;;;;8334139;28;20438;-85
2022/05/24 06:55:53;;;;;;;5.20;3.10;;;;;;;;;;8334160;28;20493;-86
2022/05/24 07:04:15;;;;;;;4.53;2.17;;;;;;;;;;8334005;28;20053;-86
2022/05/24 07:08:19;;;;;;;10.40;6.40;;;;;;;;;;8334187;28;20555;-86
2022/05/24 07:12:24;;;;;;;11.02;6.57;;;;;;;;;;8333749;28;20485;-83
2022/05/24 07:16:27;;;;;;;8.75;4.10;;;;;;;;;;8333776;28;20120;-83
2022/05/24 07:20:33;;;;;;;11.38;5.03;;;;;;;;;;8333419;28;20077;-82
2022/05/24 07:24:36;;;;;;;4.85;2.00;;;;;;;;;;8333284;28;20092;-84
2022/05/24 07:28:41;;;;;;;5.03;2.78;;;;;;;;;;8333189;28;20068;-84
2022/05/24 07:32:45;;;;;;;12.15;3.40;;;;;;;;;;8332985;28;20046;-83
2022/05/24 07:36:48;;;;;;;9.05;4.10;;;;;;;;;;8333441;28;20254;-84
2022/05/24 07:49:38;;;;;;;21.67;18.13;;;;;;;;;;8332518;28;20049;-84
2022/05/24 07:53:41;;;;;;;7.45;4.20;;;;;;;;;;8332156;28;20099;-84
2022/05/24 07:57:44;;;;;;;7.80;3.17;;;;;;;;;;8332336;28;20103;-84
2022/05/24 08:01:48;;;;;;;6.30;4.63;;;;;;;;;;8332154;28;20413;-85
2022/05/24 08:05:51;;;;;;;7.68;5.50;;;;;;;;;;8332087;28;20401;-86
2022/05/24 08:09:54;;;;;;;6.53;2.65;;;;;;;;;;8331935;28;20045;-87
2022/05/24 08:13:58;;;;;;;10.77;7.88;;;;;;;;;;8331845;28;20473;-87
2022/05/24 08:18:05;;;;;;;11.65;3.65;;;;;;;;;;8331661;28;20510;-85
2022/05/24 08:22:08;;;;;;;15.35;10.50;;;;;;;;;;8331591;28;20052;-82
2022/05/24 08:26:12;;;;;;;5.68;2.75;;;;;;;;;;8331409;28;20559;-85
2022/05/24 08:30:17;;;;;;;6.47;2.70;;;;;;;;;;8331468;28;20101;-85
2022/05/24 08:34:24;;;;;;;7.35;3.63;;;;;;;;;;8330657;28;20046;-86
2022/05/24 08:38:28;;;;;;;4.43;2.90;;;;;;;;;;8331096;28;20048;-86
2022/05/24 08:42:41;;;;;;;3.90;1.90;;;;;;;;;;8330987;28;20049;-85
2022/05/24 08:51:12;;;;;;;6.50;2.20;;;;;;;;;;8331069;28;20428;-87
2022/05/24 08:55:15;;;;;;;6.00;2.80;;;;;;;;;;8325358;28;20045;-85
2022/05/24 08:59:22;;;;;;;18.17;9.55;;;;;;;;;;8330700;28;20045;-84
2022/05/24 09:03:26;;;;;;;4.05;2.33;;;;;;;;;;8324801;28;20042;-85
2022/05/24 09:07:37;;;;;;;2.95;2.05;;;;;;;;;;8330482;28;20068;-86
2022/05/24 09:11:52;;;;;;;4.60;3.20;;;;;;;;;;8324715;28;20057;-84
2022/05/24 09:16:01;;;;;;;7.82;3.72;;;;;;;;;;8330772;28;20049;-86
2022/05/24 09:20:13;;;;;;;11.95;5.53;;;;;;;;;;8330177;28;20041;-85
2022/05/24 09:24:27;;;;;;;13.32;6.03;;;;;;;;;;8330143;28;20067;-85
2022/05/24 09:28:49;;;;;;;7.68;5.57;;;;;;;;;;8330522;28;20481;-84
2022/05/24 09:32:51;;;;;;;22.65;15.55;;;;;;;;;;8330237;28;20049;-85
2022/05/24 09:36:57;;;;;;;7.97;5.18;;;;;;;;;;8329963;28;20045;-85
2022/05/24 09:41:11;;;;;;;8.63;3.33;;;;;;;;;;8330855;28;20120;-85
2022/05/24 09:45:17;;;;;;;9.32;4.95;;;;;;;;;;8331234;28;20124;-83
2022/05/24 09:49:25;;;;;;;7.80;3.08;;;;;;;;;;8330113;28;20448;-82
2022/05/24 09:53:31;;;;;;;5.00;2.45;;;;;;;;;;8329984;28;20053;-84
2022/05/24 09:57:35;;;;;;;5.78;4.07;;;;;;;;;;8329864;28;20095;-85
2022/05/24 10:01:41;;;;;;;8.20;2.78;;;;;;;;;;8335926;28;20049;-85
2022/05/24 10:05:44;;;;;;;8.27;2.75;;;;;;;;;;8335670;28;20041;-84
2022/05/24 10:09:57;;;;;;;3.83;2.47;;;;;;;;;;8335626;28;20045;-85
2022/05/24 10:14:20;;;;;;;27.52;15.05;;;;;;;;;;8329717;28;20045;-84
2022/05/24 10:18:43;;;;;;;17.50;9.27;;;;;;;;;;8336130;28;20041;-84
2022/05/24 10:22:57;;;;;;;3.42;2.42;;;;;;;;;;8335781;28;20045;-84
2022/05/24 10:27:05;;;;;;;69.43;41.13;;;;;;;;;;8335674;28;20762;-82
2022/05/24 10:31:28;;;;;;;28.17;17.58;;;;;;;;;;8335155;28;20045;-84
2022/05/24 10:40:21;;;;;;;13.77;7.65;;;;;;;;;;8334780;28;20048;-89
2022/05/24 10:44:30;;;;;;;10.95;5.35;;;;;;;;;;8334680;28;20401;-83
2022/05/24 10:48:42;;;;;;;3.97;2.72;;;;;;;;;;8329344;28;20496;-86
2022/05/24 10:52:52;;;;;;;5.72;3.30;;;;;;;;;;8334205;28;20114;-84
2022/05/24 10:56:57;;;;;;;15.77;4.30;;;;;;;;;;8334452;28;20444;-82
2022/05/24 11:01:07;;;;;;;10.18;3.80;;;;;;;;;;8334204;28;20481;-83
2022/05/24 11:05:18;;;;;;;12.05;7.43;;;;;;;;;;8333871;28;20103;-84
2022/05/24 11:09:22;;;;;;;;;;;;;;;;;;8334335;28;20088;-86
2022/05/24 11:13:37;;;;;;;13.48;4.60;;;;;;;;;;8333747;28;19921;-83
2022/05/24 11:17:40;;;;;;;23.40;6.80;;;;;;;;;;8333569;28;20041;-84
2022/05/24 11:21:50;;;;;;;118.88;29.80;;;;;;;;;;8333329;28;20053;-83
2022/05/24 11:25:59;;;;;;;42.22;10.35;;;;;;;;;;8333358;28;20045;-84
2022/05/24 11:30:10;;;;;;;49.33;14.73;;;;;;;;;;8333271;28;20048;-84
2022/05/24 11:34:20;;;;;;;101.47;26.02;;;;;;;;;;8333155;28;20045;-83
2022/05/24 11:38:43;;;;;;;76.07;26.17;;;;;;;;;;8332922;28;20045;-83
2022/05/24 11:42:50;;;;;;;78.43;23.75;;;;;;;;;;8327377;28;20121;-82
2022/05/24 11:46:56;;;;;;;37.25;11.45;;;;;;;;;;8332466;28;20140;-83
2022/05/24 11:51:33;;;;;;;144.02;38.03;;;;;;;;;;8332142;28;20136;-83
2022/05/24 11:56:12;;;;;;;8.23;4.38;;;;;;;;;;8332303;28;20049;-84
2022/05/24 12:00:32;;;;;;;5.90;3.17;;;;;;;;;;8328665;28;20095;-84
2022/05/24 12:09:19;;;;;;;48.55;14.82;;;;;;;;;;8331055;28;20398;-84
2022/05/24 12:13:34;;;;;;;9.32;4.30;;;;;;;;;;8332231;28;20456;-84
2022/05/24 12:17:39;;;;;;;39.15;12.57;;;;;;;;;;8331810;28;20073;-83
2022/05/24 12:21:53;;;;;;;6.03;3.95;;;;;;;;;;8331436;28;20056;-84
2022/05/24 12:25:58;;;;;;;82.70;27.48;;;;;;;;;;8331748;28;20440;-84
2022/05/24 12:30:17;;;;;;;36.50;15.48;;;;;;;;;;8331251;28;20116;-84
2022/05/24 12:34:22;;;;;;;31.58;15.48;;;;;;;;;;8331750;28;20048;-85
2022/05/24 12:38:28;;;;;;;12.20;8.13;;;;;;;;;;8331065;28;20056;-84
2022/05/24 12:42:31;;;;;;;16.25;10.38;;;;;;;;;;8331637;28;20416;-85
2022/05/24 12:46:36;;;;;;;9.60;4.78;;;;;;;;;;8330899;28;20136;-84
2022/05/24 12:50:41;;;;;;;5.65;3.60;;;;;;;;;;8330727;28;20054;-84
2022/05/24 12:54:46;;;;;;;6.05;3.33;;;;;;;;;;8330730;28;20592;-84
2022/05/24 12:58:52;;;;;;;3.47;2.65;;;;;;;;;;8330681;28;20073;-85
2022/05/24 13:02:56;;;;;;;3.40;2.35;;;;;;;;;;8330576;28;20051;-85
2022/05/24 13:07:19;;;;;;;5.82;3.03;;;;;;;;;;8330325;28;20078;-85
2022/05/24 13:11:22;;;;;;;3.83;2.60;;;;;;;;;;8324158;28;20056;-86
2022/05/24 13:15:30;;;;;;;4.55;2.72;;;;;;;;;;8330257;28;20049;-83
2022/05/24 13:19:44;;;;;;;4.05;2.45;;;;;;;;;;8333595;28;20045;-88
2022/05/24 13:23:49;;;;;;;3.92;2.60;;;;;;;;;;8341380;28;20095;-84
2022/05/24 13:27:57;;;;;;;4.93;2.78;;;;;;;;;;8340971;28;20100;-85
2022/05/24 13:36:26;;;;;;;5.90;2.60;;;;;;;;;;8340873;28;20045;-84
2022/05/24 13:40:39;;;;;;;3.17;2.45;;;;;;;;;;8340944;28;20053;-84
2022/05/24 13:45:03;;;;;;;6.32;2.72;;;;;;;;;;8340729;28;20037;-85
2022/05/24 13:49:06;;;;;;;20.63;5.38;;;;;;;;;;8341175;28;20045;-83
2022/05/24 13:53:26;;;;;;;4.30;2.65;;;;;;;;;;8340652;28;20072;-86
2022/05/24 13:57:32;;;;;;;4.18;2.42;;;;;;;;;;8335896;28;20497;-85
2022/05/24 14:01:39;;;;;;;4.60;2.40;;;;;;;;;;8340637;28;20549;-88
2022/05/24 14:05:43;;;;;;;4.93;2.70;;;;;;;;;;8340503;28;20504;-85
2022/05/24 14:09:45;;;;;;;3.50;2.60;;;;;;;;;;8340434;28;20128;-84
2022/05/24 14:13:51;;;;;;;4.47;2.88;;;;;;;;;;8340545;28;20076;-83
2022/05/24 14:17:54;;;;;;;3.85;2.58;;;;;;;;;;8340548;28;20041;-83
2022/05/24 14:21:58;;;;;;;3.60;2.40;;;;;;;;;;8340300;28;20064;-83
2022/05/24 14:26:00;;;;;;;6.68;2.70;;;;;;;;;;8340167;28;20132;-84
2022/05/24 14:30:07;;;;;;;8.30;5.97;;;;;;;;;;8339789;28;20052;-83
2022/05/24 14:34:13;;;;;;;5.47;3.40;;;;;;;;;;8334734;28;20054;-84
2022/05/24 14:38:18;;;;;;;7.78;3.50;;;;;;;;;;8335264;28;20428;-84
2022/05/24 14:42:21;;;;;;;4.60;2.80;;;;;;;;;;8334835;28;20060;-91
2022/05/24 14:46:28;;;;;;;4.90;2.47;;;;;;;;;;8334662;28;20038;-84
2022/05/24 14:50:32;;;;;;;4.95;2.55;;;;;;;;;;8334866;28;20225;-84
2022/05/24 14:54:42;;;;;;;5.07;2.75;;;;;;;;;;8334352;28;20068;-85
2022/05/24 14:58:45;;;;;;;6.35;3.33;;;;;;;;;;8334351;28;20218;-89
2022/05/24 15:02:49;;;;;;;3.97;2.67;;;;;;;;;;8334217;28;20041;-84
2022/05/24 15:06:52;;;;;;;5.75;3.47;;;;;;;;;;8333901;28;20554;-85
2022/05/24 15:15:22;;;;;;;18.23;10.70;;;;;;;;;;8333720;28;20046;-84
2022/05/24 15:19:27;;;;;;;15.75;9.23;;;;;;;;;;8333604;28;20072;-84
2022/05/24 15:23:33;;;;;;;49.35;30.20;;;;;;;;;;8333466;28;20065;-84
2022/05/24 15:27:38;;;;;;;44.38;24.25;;;;;;;;;;8333319;28;20461;-84
2022/05/24 15:31:43;;;;;;;44.60;22.80;;;;;;;;;;8333238;28;20041;-85
2022/05/24 15:35:48;;;;;;;17.17;10.05;;;;;;;;;;8333200;28;20128;-84
2022/05/24 15:39:51;;;;;;;31.60;18.52;;;;;;;;;;8332983;28;20048;-85
2022/05/24 15:43:55;;;;;;;28.73;16.33;;;;;;;;;;8331885;28;20045;-84
2022/05/24 15:47:58;;;;;;;14.20;8.82;;;;;;;;;;8332614;28;20041;-85
2022/05/24 15:52:04;;;;;;;24.38;14.27;;;;;;;;;;8332294;28;20061;-85
2022/05/24 15:56:08;;;;;;;16.05;9.35;;;;;;;;;;8332511;28;20053;-85
2022/05/24 16:00:13;;;;;;;12.73;8.50;;;;;;;;;;8332280;28;20045;-84
2022/05/24 16:10:02;;;;;;;23.88;12.63;;;;;;;;;;8332673;28;20486;-84
2022/05/24 16:13:02;;;;;;;15.05;9.20;;;;;;;;;;8332228;28;20567;-85
2022/05/24 16:17:09;;;;;;;13.18;8.00;;;;;;;;;;8331911;28;20045;-86
2022/05/24 16:21:13;;;;;;;13.77;9.43;;;;;;;;;;8331608;28;20056;-84
2022/05/24 16:25:18;;;;;;;19.42;10.32;;;;;;;;;;8331747;28;20095;-85
2022/05/24 16:29:21;;;;;;;15.07;8.02;;;;;;;;;;8325624;28;20077;-85
2022/05/24 16:33:25;;;;;;;18.60;10.45;;;;;;;;;;8331425;28;20056;-84
2022/05/24 16:37:29;;;;;;;19.35;11.73;;;;;;;;;;8331760;28;20581;-84
2022/05/24 16:41:35;;;;;;;54.00;32.03;;;;;;;;;;8331060;28;20049;-84
2022/05/24 16:45:40;;;;;;;18.58;12.20;;;;;;;;;;8327144;28;20072;-85
2022/05/24 16:49:44;;;;;;;12.65;6.47;;;;;;;;;;8326151;28;20053;-85
2022/05/24 16:53:48;;;;;;;13.02;7.93;;;;;;;;;;8325736;28;20061;-85
2022/05/24 17:02:14;;;;;;;15.98;8.70;;;;;;;;;;8321937;28;20041;-85
2022/05/24 17:06:20;;;;;;;15.65;8.15;;;;;;;;;;8319197;28;20482;-87
2022/05/24 17:10:24;;;;;;;15.60;8.23;;;;;;;;;;8323622;28;20069;-85
2022/05/24 17:14:30;;;;;;;15.50;9.93;;;;;;;;;;8318247;28;20046;-84
2022/05/24 17:18:34;;;;;;;20.45;14.20;;;;;;;;;;8285929;28;20041;-85
2022/05/24 17:22:40;;;;;;;13.77;8.20;;;;;;;;;;8325886;28;20056;-91
2022/05/24 17:26:46;;;;;;;15.95;7.82;;;;;;;;;;8326410;28;20057;-89
2022/05/24 17:30:52;;;;;;;15.23;8.20;;;;;;;;;;8324600;28;20077;-85
2022/05/24 17:34:55;;;;;;;13.18;7.35;;;;;;;;;;8325498;28;20424;-86
2022/05/24 17:38:59;;;;;;;9.52;5.60;;;;;;;;;;8325205;28;20056;-86
2022/05/24 17:43:05;;;;;;;10.50;6.50;;;;;;;;;;8324472;28;20053;-85
2022/05/24 17:47:19;;;;;;;17.17;7.70;;;;;;;;;;8320457;28;20461;-85
2022/05/24 17:51:23;;;;;;;12.27;8.50;;;;;;;;;;8325160;28;20084;-85
2022/05/24 17:55:26;;;;;;;10.35;6.38;;;;;;;;;;8322482;28;20042;-85
2022/05/24 17:59:30;;;;;;;11.50;6.88;;;;;;;;;;8327014;28;20041;-85
2022/05/24 18:03:41;;;;;;;12.68;6.78;;;;;;;;;;8326434;28;20048;-85
2022/05/24 18:07:45;;;;;;;13.75;7.55;;;;;;;;;;8324976;28;20050;-85
2022/05/24 18:11:48;;;;;;;12.98;7.22;;;;;;;;;;8332903;28;20057;-85
2022/05/24 18:15:58;;;;;;;10.52;6.82;;;;;;;;;;8335759;28;20076;-85
2022/05/24 18:20:06;;;;;;;24.50;13.32;;;;;;;;;;8335421;28;20042;-85
2022/05/24 18:24:16;;;;;;;12.02;6.70;;;;;;;;;;8335284;28;20041;-85
2022/05/24 18:37:04;;;;;;;10.68;6.85;;;;;;;;;;8335045;28;20045;-85
2022/05/24 18:41:07;;;;;;;8.93;5.75;;;;;;;;;;8334896;28;20430;-85
2022/05/24 18:45:10;;;;;;;11.20;5.88;;;;;;;;;;8334666;28;20053;-85
2022/05/24 18:49:13;;;;;;;9.18;5.38;;;;;;;;;;8334553;28;20049;-85
2022/05/24 18:53:18;;;;;;;7.10;5.47;;;;;;;;;;8334061;28;20521;-84
2022/05/24 18:57:21;;;;;;;9.80;5.78;;;;;;;;;;8334334;28;20123;-84
2022/05/24 19:01:25;;;;;;;9.30;6.18;;;;;;;;;;8334197;28;20045;-84
2022/05/24 19:05:28;;;;;;;11.23;6.53;;;;;;;;;;8334038;28;20080;-85
2022/05/24 19:09:37;;;;;;;9.68;6.38;;;;;;;;;;8334055;28;20520;-85
2022/05/24 19:13:41;;;;;;;12.48;5.97;;;;;;;;;;8333862;28;20092;-85
2022/05/24 19:17:45;;;;;;;10.50;5.40;;;;;;;;;;8333355;28;20516;-84
2022/05/24 19:21:48;;;;;;;8.10;5.88;;;;;;;;;;8333498;28;20106;-84
2022/05/24 19:25:54;;;;;;;11.35;5.93;;;;;;;;;;8333288;28;20417;-85
2022/05/24 19:29:59;;;;;;;9.90;6.13;;;;;;;;;;8333783;28;20042;-84
2022/05/24 19:34:02;;;;;;;8.77;5.80;;;;;;;;;;8333262;28;20068;-85
2022/05/24 19:38:05;;;;;;;8.73;6.10;;;;;;;;;;8333055;28;20087;-85
2022/05/24 19:42:10;;;;;;;22.90;14.75;;;;;;;;;;8333399;28;20450;-84
2022/05/24 19:46:13;;;;;;;15.63;10.88;;;;;;;;;;8326810;28;20084;-86
2022/05/24 19:50:18;;;;;;;10.75;8.18;;;;;;;;;;8326888;28;20469;-84
2022/05/24 19:54:22;;;;;;;13.45;8.15;;;;;;;;;;8332662;28;20049;-84
2022/05/24 19:58:27;;;;;;;9.63;7.30;;;;;;;;;;8332261;28;20069;-84
2022/05/24 20:02:30;;;;;;;12.77;8.90;;;;;;;;;;8332178;28;20049;-84
2022/05/24 20:06:33;;;;;;;17.55;9.68;;;;;;;;;;8332048;28;20072;-84
2022/05/24 20:10:37;;;;;;;12.35;9.57;;;;;;;;;;8332011;28;20128;-83
2022/05/24 20:14:42;;;;;;;20.15;14.82;;;;;;;;;;8331916;28;20046;-83
2022/05/24 20:18:45;;;;;;;12.10;9.30;;;;;;;;;;8332018;28;20057;-85
2022/05/24 20:22:49;;;;;;;11.88;8.73;;;;;;;;;;8331803;28;20068;-84
2022/05/24 20:26:52;;;;;;;12.45;8.25;;;;;;;;;;8331577;28;20485;-88
2022/05/24 20:30:57;;;;;;;13.32;7.95;;;;;;;;;;8330773;28;20047;-84
2022/05/24 20:35:00;;;;;;;11.70;8.32;;;;;;;;;;8331298;28;20059;-84
2022/05/24 20:39:04;;;;;;;11.68;8.13;;;;;;;;;;8331131;28;20041;-84
2022/05/24 20:43:07;;;;;;;11.32;8.82;;;;;;;;;;8331105;28;20060;-84
2022/05/24 20:47:13;;;;;;;12.95;8.88;;;;;;;;;;8330864;28;20061;-84
2022/05/24 20:51:17;;;;;;;12.88;8.13;;;;;;;;;;8330764;28;20053;-84
2022/05/24 20:55:21;;;;;;;11.73;7.57;;;;;;;;;;8331311;28;20068;-84
2022/05/24 20:59:24;;;;;;;12.85;8.30;;;;;;;;;;8330621;28;20056;-84
2022/05/24 21:03:29;;;;;;;13.02;9.00;;;;;;;;;;8330739;28;20045;-85
2022/05/24 21:07:34;;;;;;;13.32;8.63;;;;;;;;;;8330455;28;20144;-86
2022/05/24 21:11:38;;;;;;;16.58;8.82;;;;;;;;;;8330572;28;20551;-87
2022/05/24 21:15:41;;;;;;;12.35;8.30;;;;;;;;;;8330347;28;20223;-86
2022/05/24 21:19:44;;;;;;;13.20;8.95;;;;;;;;;;8330382;28;20068;-85
2022/05/24 21:23:48;;;;;;;12.65;8.55;;;;;;;;;;8330241;28;20045;-85
2022/05/24 21:28:03;;;;;;;14.43;9.95;;;;;;;;;;8330095;28;20433;-85
2022/05/24 21:32:07;;;;;;;14.25;9.93;;;;;;;;;;8330255;28;20051;-85
2022/05/24 21:36:10;;;;;;;14.18;9.13;;;;;;;;;;8330108;28;20049;-85
2022/05/24 21:40:15;;;;;;;14.15;9.35;;;;;;;;;;8331454;28;20096;-85
2022/05/24 21:44:17;;;;;;;12.63;9.05;;;;;;;;;;8336583;28;20159;-84
2022/05/24 21:48:22;;;;;;;13.10;9.95;;;;;;;;;;8336352;28;20045;-86
2022/05/24 21:52:25;;;;;;;13.43;9.30;;;;;;;;;;8336201;28;20138;-85
2022/05/24 21:56:29;;;;;;;16.35;9.95;;;;;;;;;;8329991;28;20047;-85
2022/05/24 22:00:57;;;;;;;14.65;9.98;;;;;;;;;;8329758;28;20119;-86
2022/05/24 22:04:59;;;;;;;16.17;10.43;;;;;;;;;;8332510;28;20041;-86
2022/05/24 22:09:02;;;;;;;14.88;10.00;;;;;;;;;;8335783;28;20049;-86
2022/05/24 22:13:07;;;;;;;13.93;10.23;;;;;;;;;;8335786;28;20436;-86
2022/05/24 22:17:12;;;;;;;14.25;11.43;;;;;;;;;;8337047;28;20044;-86
2022/05/24 22:21:16;;;;;;;15.88;10.82;;;;;;;;;;8335498;28;20053;-86
2022/05/24 22:25:18;;;;;;;15.82;11.15;;;;;;;;;;8336158;28;20045;-86
2022/05/24 22:29:23;;;;;;;16.23;11.27;;;;;;;;;;8335305;28;20577;-86
2022/05/24 22:33:26;;;;;;;14.80;11.15;;;;;;;;;;8335134;28;20484;-86
2022/05/24 22:37:29;;;;;;;15.13;11.35;;;;;;;;;;8335263;28;20083;-86
2022/05/24 22:41:32;;;;;;;16.08;11.98;;;;;;;;;;8328666;28;20056;-87
2022/05/24 22:45:40;;;;;;;18.10;11.88;;;;;;;;;;8332588;28;20401;-90
2022/05/24 22:49:43;;;;;;;14.23;11.23;;;;;;;;;;8328561;28;20489;-90
2022/05/24 22:53:46;;;;;;;16.52;12.85;;;;;;;;;;8333211;28;20057;-87
2022/05/24 22:57:49;;;;;;;18.13;12.10;;;;;;;;;;8327133;28;20492;-90
2022/05/24 23:01:54;;;;;;;16.77;12.95;;;;;;;;;;8326740;28;20129;-87
2022/05/24 23:05:58;;;;;;;20.35;13.13;;;;;;;;;;8331328;28;20124;-86
2022/05/24 23:10:01;;;;;;;17.27;12.48;;;;;;;;;;8332635;28;20129;-87
2022/05/24 23:14:04;;;;;;;18.55;13.63;;;;;;;;;;8330617;28;20042;-87
2022/05/24 23:18:09;;;;;;;18.42;13.63;;;;;;;;;;8332026;28;20065;-88
2022/05/24 23:22:12;;;;;;;19.10;14.68;;;;;;;;;;8331306;28;20053;-86
2022/05/24 23:26:14;;;;;;;24.60;14.68;;;;;;;;;;8333660;28;20125;-86
2022/05/24 23:30:17;;;;;;;21.70;15.27;;;;;;;;;;8333622;28;20038;-86
2022/05/24 23:34:21;;;;;;;21.00;15.75;;;;;;;;;;8333410;28;20041;-86
2022/05/24 23:38:24;;;;;;;22.75;16.02;;;;;;;;;;8333235;28;20095;-86
2022/05/24 23:42:27;;;;;;;20.00;15.52;;;;;;;;;;8333215;28;20049;-85
2022/05/24 23:46:29;;;;;;;25.02;15.95;;;;;;;;;;8331810;28;20044;-93
2022/05/24 23:50:34;;;;;;;21.65;15.80;;;;;;;;;;8332126;28;20048;-86
2022/05/24 23:54:38;;;;;;;22.00;15.85;;;;;;;;;;8331662;28;20103;-86
2022/05/24 23:58:41;;;;;;;23.02;16.15;;;;;;;;;;8329995;28;20096;-86
